Time;durP1;ratioP1;P1;durP2;ratioP2;P2;SDS_P1;SDS_P2;PMS_P1;PMS_P2;Temp;Humidity;BMP_temperature;BMP_pressure;BME280_temperature;BME280_humidity;BME280_pressure;Samples;Min_cycle;Max_cycle;Signal;HPM_P1;HPM_P2
2022/12/13 00:02:11;;;;;;;27.10;12.48;;;-3273.30;80.00;;;;;;5114403;27;20052;-65
2022/12/13 00:04:45;;;;;;;28.17;11.15;;;-3273.20;80.20;;;;;;5116439;27;20059;-65
2022/12/13 00:07:12;;;;;;;29.23;12.75;;;-3273.20;80.20;;;;;;5118196;27;20127;-61
2022/12/13 00:09:41;;;;;;;28.08;12.30;;;-3273.10;80.20;;;;;;5117853;27;20493;-60
2022/12/13 00:12:09;;;;;;;31.23;13.07;;;-3273.10;80.20;;;;;;5121390;27;20039;-60
2022/12/13 00:14:38;;;;;;;28.33;12.20;;;-3273.20;80.30;;;;;;5108471;27;20103;-60
2022/12/13 00:17:05;;;;;;;30.20;13.43;;;-3273.20;80.10;;;;;;5123932;27;20047;-61
2022/12/13 00:19:32;;;;;;;28.77;11.75;;;-3273.10;80.10;;;;;;5120901;27;20470;-61
2022/12/13 00:21:59;;;;;;;27.63;13.30;;;-3273.10;80.10;;;;;;5116863;27;20253;-61
2022/12/13 00:24:26;;;;;;;28.75;12.65;;;-3273.10;80.00;;;;;;5118236;27;20052;-62
2022/12/13 00:26:55;;;;;;;32.75;12.82;;;-3273.10;80.00;;;;;;5121408;27;20036;-61
2022/12/13 00:29:23;;;;;;;27.45;10.98;;;-3273.10;80.00;;;;;;5118859;27;20051;-61
2022/12/13 00:31:50;;;;;;;26.92;12.00;;;-3273.00;80.10;;;;;;5118656;27;20035;-60
2022/12/13 00:34:17;;;;;;;30.33;11.10;;;-3273.00;80.20;;;;;;5121145;27;20061;-60
2022/12/13 00:36:45;;;;;;;27.88;12.27;;;-3273.00;80.20;;;;;;5118252;27;20043;-61
2022/12/13 00:39:13;;;;;;;28.77;12.98;;;-3273.10;80.10;;;;;;5121642;27;20040;-61
2022/12/13 00:41:40;;;;;;;31.38;12.70;;;-3273.20;80.10;;;;;;5120202;27;20102;-59
2022/12/13 00:44:07;;;;;;;28.63;12.40;;;-3273.20;80.00;;;;;;5119165;27;20979;-61
2022/12/13 00:46:35;;;;;;;25.58;12.18;;;-3273.10;80.10;;;;;;5122267;27;20051;-59
2022/12/13 00:49:02;;;;;;;26.67;11.48;;;-3273.20;80.00;;;;;;5121204;27;20043;-61
2022/12/13 00:51:31;;;;;;;26.48;11.48;;;-3273.20;80.10;;;;;;5116342;27;20494;-65
2022/12/13 00:53:58;;;;;;;25.30;11.20;;;-3273.10;80.40;;;;;;5123574;27;20052;-65
2022/12/13 00:56:27;;;;;;;30.90;12.32;;;-3273.10;80.50;;;;;;5120489;27;20062;-65
2022/12/13 00:58:55;;;;;;;28.27;11.35;;;-3273.20;80.40;;;;;;5120572;27;20496;-65
2022/12/13 01:01:26;;;;;;;27.17;12.50;;;-3273.30;80.10;;;;;;5118990;27;20054;-65
2022/12/13 01:03:56;;;;;;;22.63;11.25;;;-3273.30;79.90;;;;;;5135884;27;20714;-64
2022/12/13 01:06:28;;;;;;;30.50;11.45;;;-3273.10;79.70;;;;;;5117610;27;20537;-64
2022/12/13 01:08:55;;;;;;;27.05;11.63;;;-3273.10;80.10;;;;;;5110514;27;20039;-65
2022/12/13 01:11:22;;;;;;;26.95;12.10;;;-3273.10;80.10;;;;;;5120205;27;20047;-65
2022/12/13 01:13:49;;;;;;;29.50;12.02;;;-3273.10;79.80;;;;;;5113597;27;20497;-65
2022/12/13 01:16:17;;;;;;;28.55;11.57;;;-3273.10;80.00;;;;;;5106899;27;20054;-65
2022/12/13 01:18:45;;;;;;;30.88;11.48;;;-3273.00;80.00;;;;;;5101048;27;20059;-65
2022/12/13 01:21:15;;;;;;;29.80;11.15;;;-3273.00;80.00;;;;;;5100595;28;20040;-61
2022/12/13 01:23:43;;;;;;;25.30;10.90;;;-3273.00;80.00;;;;;;5098559;28;20094;-61
2022/12/13 01:26:12;;;;;;;28.70;11.13;;;-3273.00;80.10;;;;;;5097330;28;20044;-61
2022/12/13 01:28:39;;;;;;;28.20;11.52;;;-3273.00;79.90;;;;;;5115859;27;20410;-60
2022/12/13 01:31:08;;;;;;;23.75;11.18;;;-3273.00;79.60;;;;;;5102549;27;20047;-60
2022/12/13 01:33:36;;;;;;;24.70;10.68;;;-3272.90;79.80;;;;;;5099269;27;20051;-62
2022/12/13 01:36:06;;;;;;;28.17;11.25;;;-3272.90;79.80;;;;;;5096700;28;20054;-70
2022/12/13 01:38:35;;;;;;;26.95;11.43;;;-3272.90;79.80;;;;;;5100803;28;20058;-71
2022/12/13 01:41:03;;;;;;;28.80;11.73;;;-3272.90;79.80;;;;;;5099734;28;20127;-71
2022/12/13 01:43:51;;;;;;;25.75;11.27;;;-3272.90;80.10;;;;;;5099803;28;20044;-71
2022/12/13 01:46:19;;;;;;;23.35;10.48;;;-3272.90;79.70;;;;;;5099469;28;20452;-72
2022/12/13 01:48:53;;;;;;;27.60;11.23;;;-3272.80;79.80;;;;;;5099145;28;20036;-72
2022/12/13 01:51:25;;;;;;;26.92;11.52;;;-3272.90;79.90;;;;;;5097241;28;20055;-71
2022/12/13 01:53:55;;;;;;;23.92;10.77;;;-3272.90;79.80;;;;;;5099869;28;20067;-72
2022/12/13 01:56:30;;;;;;;25.33;10.77;;;-3272.80;79.60;;;;;;5116320;27;20448;-61
2022/12/13 01:58:57;;;;;;;25.50;10.98;;;-3272.80;79.70;;;;;;5119982;27;20035;-61
2022/12/13 02:01:25;;;;;;;23.65;10.50;;;-3272.70;79.70;;;;;;5117974;27;20084;-61
2022/12/13 02:03:51;;;;;;;24.13;10.65;;;-3272.80;79.70;;;;;;5119078;27;20396;-61
2022/12/13 02:06:25;;;;;;;25.85;10.60;;;-3272.70;80.10;;;;;;5102592;27;20063;-61
2022/12/13 02:08:54;;;;;;;25.10;10.70;;;-3272.70;80.00;;;;;;5088535;28;20050;-62
2022/12/13 02:11:21;;;;;;;28.35;11.32;;;-3272.70;80.00;;;;;;5090539;28;20146;-62
2022/12/13 02:13:48;;;;;;;23.17;9.98;;;-3272.70;80.00;;;;;;5090738;27;20113;-62
2022/12/13 02:16:24;;;;;;;22.52;10.50;;;-3272.70;79.90;;;;;;5090461;28;20040;-65
2022/12/13 02:19:10;;;;;;;24.08;11.02;;;-3272.60;80.00;;;;;;5078656;28;20044;-65
2022/12/13 02:21:49;;;;;;;23.80;10.98;;;-3272.60;79.90;;;;;;5087831;27;20154;-71
2022/12/13 02:24:37;;;;;;;23.27;10.45;;;-3272.60;80.10;;;;;;5090047;27;20117;-71
2022/12/13 02:27:17;;;;;;;25.02;10.80;;;-3272.60;80.00;;;;;;5089485;27;20049;-72
2022/12/13 02:30:16;;;;;;;23.98;10.75;;;-3272.60;79.70;;;;;;5098424;27;20053;-71
2022/12/13 02:32:58;;;;;;;27.48;10.98;;;-3272.60;79.80;;;;;;5098193;27;20097;-70
2022/12/13 02:35:31;;;;;;;23.63;10.48;;;-3272.60;79.70;;;;;;5118369;27;20055;-62
2022/12/13 02:38:08;;;;;;;22.85;10.82;;;-3272.60;79.70;;;;;;5110879;27;20140;-61
2022/12/13 02:40:39;;;;;;;24.50;10.88;;;-3272.60;79.90;;;;;;5119573;27;20478;-64
2022/12/13 02:43:12;;;;;;;25.23;11.30;;;-3272.50;79.90;;;;;;5117389;27;20035;-65
2022/12/13 02:45:46;;;;;;;27.75;9.57;;;-3272.50;79.90;;;;;;5116407;27;20051;-64
2022/12/13 02:48:16;;;;;;;23.33;9.55;;;-3272.50;80.10;;;;;;5118595;27;20048;-64
2022/12/13 02:50:44;;;;;;;22.85;9.57;;;-3272.50;80.00;;;;;;5114564;27;20047;-72
2022/12/13 02:53:12;;;;;;;24.45;10.07;;;-3272.40;80.10;;;;;;5115036;27;20055;-72
2022/12/13 02:55:40;;;;;;;23.05;10.10;;;-3272.50;80.00;;;;;;5116237;27;20104;-61
2022/12/13 02:58:07;;;;;;;23.25;9.95;;;-3272.40;79.90;;;;;;5119141;27;20043;-61
2022/12/13 03:00:44;;;;;;;27.60;10.85;;;-3272.50;80.00;;;;;;5118195;27;20436;-62
2022/12/13 03:03:20;;;;;;;21.17;10.05;;;-3272.50;79.80;;;;;;5116643;27;20057;-62
2022/12/13 03:08:43;;;;;;;;;;;-3272.40;80.00;;;;;;5117924;27;20039;-62
2022/12/13 03:11:14;;;;;;;22.08;9.52;;;-3272.40;79.90;;;;;;5118359;27;19919;-62
2022/12/13 03:13:48;;;;;;;22.23;9.68;;;-3272.40;79.90;;;;;;5115002;27;20043;-62
2022/12/13 03:16:25;;;;;;;21.70;9.45;;;-3272.40;79.90;;;;;;5117151;27;20043;-63
2022/12/13 03:18:54;;;;;;;22.17;10.68;;;-3272.40;79.80;;;;;;5114534;27;20035;-62
2022/12/13 03:21:22;;;;;;;24.13;10.10;;;-3272.40;79.90;;;;;;5117971;27;20140;-59
2022/12/13 03:23:49;;;;;;;22.92;10.18;;;-3272.40;79.90;;;;;;5117528;27;20043;-62
2022/12/13 03:26:19;;;;;;;23.50;10.55;;;-3272.40;80.00;;;;;;5119670;27;20062;-71
2022/12/13 03:28:47;;;;;;;25.25;10.82;;;-3272.40;79.90;;;;;;5117030;27;20043;-61
2022/12/13 03:31:14;;;;;;;26.52;11.32;;;-3272.40;79.90;;;;;;5118854;27;20047;-65
2022/12/13 03:33:42;;;;;;;27.63;10.75;;;-3272.50;79.90;;;;;;5119714;27;20142;-66
2022/12/13 03:36:11;;;;;;;24.30;11.05;;;-3272.40;79.80;;;;;;5117896;27;20044;-63
2022/12/13 03:38:38;;;;;;;28.25;11.20;;;-3272.50;79.90;;;;;;5118544;27;20062;-62
2022/12/13 03:41:09;;;;;;;21.65;10.27;;;-3272.50;79.80;;;;;;5117075;27;20035;-62
2022/12/13 03:43:36;;;;;;;24.67;9.70;;;-3272.50;79.60;;;;;;5117964;27;20504;-61
2022/12/13 03:46:03;;;;;;;25.35;11.23;;;-3272.50;79.70;;;;;;5120428;27;20047;-62
2022/12/13 03:48:30;;;;;;;24.17;10.55;;;-3272.50;79.60;;;;;;5122535;27;20043;-63
2022/12/13 03:50:58;;;;;;;26.60;10.63;;;-3272.40;79.60;;;;;;5120091;27;20501;-62
2022/12/13 03:53:26;;;;;;;23.70;11.02;;;-3272.40;79.60;;;;;;5119362;27;20468;-65
2022/12/13 03:55:53;;;;;;;25.60;10.48;;;-3272.30;79.70;;;;;;5119990;27;20689;-60
2022/12/13 03:58:20;;;;;;;22.65;10.40;;;-3272.30;79.60;;;;;;5119160;27;20051;-60
2022/12/13 04:00:49;;;;;;;22.63;10.65;;;-3272.30;79.60;;;;;;5119958;27;20479;-61
2022/12/13 04:03:16;;;;;;;21.33;9.35;;;-3272.30;79.50;;;;;;5119657;27;20054;-61
2022/12/13 04:05:43;;;;;;;23.45;10.98;;;-3272.20;79.70;;;;;;5121202;27;20050;-72
2022/12/13 04:08:11;;;;;;;25.83;10.50;;;-3272.20;79.60;;;;;;5098320;27;20050;-69
2022/12/13 04:10:38;;;;;;;24.80;9.82;;;-3272.20;79.50;;;;;;5105746;27;20062;-62
2022/12/13 04:15:50;;;;;;;21.65;9.75;;;-3272.20;79.40;;;;;;5117987;27;20048;-63
2022/12/13 04:18:17;;;;;;;26.52;10.68;;;-3272.20;79.30;;;;;;5120616;27;20048;-62
2022/12/13 04:20:45;;;;;;;20.10;9.10;;;-3272.10;79.50;;;;;;5119854;27;20527;-71
2022/12/13 04:23:13;;;;;;;22.75;9.48;;;-3272.10;79.70;;;;;;5118101;27;20051;-71
2022/12/13 04:25:41;;;;;;;25.48;10.32;;;-3272.10;79.60;;;;;;5120075;27;20047;-64
2022/12/13 04:28:08;;;;;;;23.20;10.38;;;-3272.20;79.60;;;;;;5120932;27;20050;-64
2022/12/13 04:30:35;;;;;;;24.75;9.60;;;-3272.20;79.40;;;;;;5120798;27;20050;-72
2022/12/13 04:33:03;;;;;;;18.85;8.68;;;-3272.20;79.50;;;;;;5121524;27;20070;-71
2022/12/13 04:35:30;;;;;;;22.25;9.15;;;-3272.10;79.40;;;;;;5122923;27;20079;-60
2022/12/13 04:37:57;;;;;;;23.65;9.52;;;-3272.10;79.40;;;;;;5121791;27;20073;-60
2022/12/13 04:40:25;;;;;;;21.38;9.40;;;-3272.10;79.60;;;;;;5114283;27;20078;-65
2022/12/13 04:42:53;;;;;;;22.45;9.57;;;-3272.10;79.70;;;;;;5122090;27;20047;-65
2022/12/13 04:45:21;;;;;;;22.20;9.70;;;-3272.10;79.70;;;;;;5121959;27;20067;-71
2022/12/13 04:47:49;;;;;;;22.38;9.43;;;-3272.10;79.60;;;;;;5120217;27;20051;-72
2022/12/13 04:50:16;;;;;;;19.40;8.40;;;-3272.10;79.70;;;;;;5120239;27;20074;-65
2022/12/13 04:52:44;;;;;;;23.02;9.40;;;-3272.10;79.70;;;;;;5118069;27;20043;-65
2022/12/13 04:55:11;;;;;;;22.85;9.85;;;-3272.00;79.70;;;;;;5119253;27;20063;-61
2022/12/13 04:57:40;;;;;;;23.10;9.38;;;-3272.10;79.80;;;;;;5118372;27;20502;-59
2022/12/13 05:00:11;;;;;;;21.58;9.82;;;-3272.00;80.00;;;;;;5121904;27;20103;-61
2022/12/13 05:02:40;;;;;;;22.23;9.50;;;-3272.00;80.00;;;;;;5120319;27;20517;-61
2022/12/13 05:05:09;;;;;;;22.85;9.30;;;-3272.00;79.90;;;;;;5120033;27;20446;-61
2022/12/13 05:07:36;;;;;;;22.73;10.43;;;-3272.00;79.90;;;;;;5120735;27;20043;-61
2022/12/13 05:10:03;;;;;;;20.50;9.85;;;-3272.00;79.70;;;;;;5119857;27;20041;-61
2022/12/13 05:12:30;;;;;;;24.92;9.48;;;-3272.00;79.70;;;;;;5114997;27;20055;-61
2022/12/13 05:14:58;;;;;;;20.83;9.45;;;-3272.00;79.80;;;;;;5120968;27;20047;-60
2022/12/13 05:17:25;;;;;;;22.42;9.88;;;-3272.00;79.70;;;;;;5120265;27;20048;-60
2022/12/13 05:19:52;;;;;;;27.00;10.40;;;-3272.00;79.70;;;;;;5120680;27;20050;-61
2022/12/13 05:22:19;;;;;;;21.80;9.93;;;-3272.00;79.70;;;;;;5118763;27;20051;-60
2022/12/13 05:24:46;;;;;;;21.90;9.60;;;-3272.00;79.70;;;;;;5113613;27;20054;-62
2022/12/13 05:27:13;;;;;;;24.92;10.43;;;-3272.00;79.60;;;;;;5120834;27;20096;-71
2022/12/13 05:29:40;;;;;;;21.27;9.93;;;-3272.10;79.40;;;;;;5119826;27;20391;-72
2022/12/13 05:32:08;;;;;;;24.80;10.43;;;-3271.90;79.50;;;;;;5119127;27;20138;-64
2022/12/13 05:34:35;;;;;;;22.88;9.70;;;-3272.00;79.70;;;;;;5118723;27;20405;-63
2022/12/13 05:37:02;;;;;;;21.55;9.32;;;-3272.00;79.60;;;;;;5120536;27;20062;-63
2022/12/13 05:39:29;;;;;;;23.55;9.55;;;-3272.00;79.70;;;;;;5117528;27;20051;-64
2022/12/13 05:41:57;;;;;;;19.63;8.63;;;-3271.90;79.50;;;;;;5118680;27;20054;-60
2022/12/13 05:44:24;;;;;;;21.60;9.35;;;-3271.90;79.70;;;;;;5120409;27;20074;-61
2022/12/13 05:46:50;;;;;;;22.02;9.45;;;-3271.80;79.80;;;;;;5120606;27;20162;-62
2022/12/13 05:49:19;;;;;;;18.98;8.73;;;-3271.80;79.80;;;;;;5119813;27;20401;-62
2022/12/13 05:51:45;;;;;;;20.45;8.70;;;-3271.80;79.80;;;;;;5115473;27;20053;-61
2022/12/13 05:54:12;;;;;;;23.90;11.20;;;-3271.90;79.60;;;;;;5119091;27;20054;-62
2022/12/13 05:56:39;;;;;;;22.20;9.65;;;-3271.90;79.60;;;;;;5118732;27;20054;-70
2022/12/13 05:59:06;;;;;;;19.52;8.88;;;-3271.90;79.50;;;;;;5118310;27;20059;-71
2022/12/13 06:01:33;;;;;;;22.23;9.57;;;-3271.90;79.30;;;;;;5120157;27;20071;-61
2022/12/13 06:04:00;;;;;;;23.20;9.65;;;-3271.80;79.50;;;;;;5120229;27;20067;-60
2022/12/13 06:06:28;;;;;;;23.50;9.77;;;-3271.70;79.60;;;;;;5119211;27;20186;-61
2022/12/13 06:08:55;;;;;;;21.58;9.82;;;-3271.80;79.60;;;;;;5118919;27;20463;-62
2022/12/13 06:11:22;;;;;;;22.33;9.63;;;-3271.70;79.40;;;;;;5120557;27;20047;-63
2022/12/13 06:13:52;;;;;;;20.55;9.45;;;-3271.80;79.50;;;;;;5116362;27;20397;-63
2022/12/13 06:16:18;;;;;;;23.58;9.50;;;-3271.70;79.50;;;;;;5108883;27;20052;-71
2022/12/13 06:18:45;;;;;;;23.48;9.20;;;-3271.80;79.50;;;;;;5094901;27;20043;-72
2022/12/13 06:21:13;;;;;;;18.15;8.82;;;-3271.70;79.40;;;;;;5119318;27;20039;-65
2022/12/13 06:23:41;;;;;;;22.60;9.63;;;-3271.70;79.50;;;;;;5091457;27;20052;-65
2022/12/13 06:26:08;;;;;;;24.02;10.18;;;-3271.70;79.50;;;;;;5114234;27;20061;-61
2022/12/13 06:28:36;;;;;;;20.85;9.55;;;-3271.80;79.20;;;;;;5118486;27;20035;-60
2022/12/13 06:31:03;;;;;;;23.60;10.82;;;-3271.70;79.30;;;;;;5119196;27;20061;-65
2022/12/13 06:33:34;;;;;;;22.13;9.68;;;-3271.70;79.30;;;;;;5113583;27;20505;-65
2022/12/13 06:36:02;;;;;;;20.38;9.45;;;-3271.60;79.30;;;;;;5098308;27;20168;-72
2022/12/13 06:38:30;;;;;;;21.52;9.93;;;-3271.70;79.40;;;;;;5104317;27;20054;-71
2022/12/13 06:41:08;;;;;;;22.40;9.48;;;-3271.70;79.30;;;;;;5100218;27;20126;-72
2022/12/13 06:43:35;;;;;;;23.83;10.00;;;-3271.70;79.20;;;;;;5119130;27;20476;-70
2022/12/13 06:46:04;;;;;;;24.00;10.90;;;-3271.70;79.30;;;;;;5119222;27;20085;-62
2022/12/13 06:48:31;;;;;;;22.00;10.25;;;-3271.60;79.20;;;;;;5118899;27;20615;-62
2022/12/13 06:51:01;;;;;;;22.10;10.15;;;-3271.60;79.20;;;;;;5114365;27;20070;-66
2022/12/13 06:53:29;;;;;;;23.23;10.10;;;-3271.60;79.20;;;;;;5118382;27;20051;-64
2022/12/13 06:55:56;;;;;;;20.25;9.55;;;-3271.60;79.30;;;;;;5118477;27;20046;-64
2022/12/13 06:58:25;;;;;;;20.90;9.48;;;-3271.50;79.30;;;;;;5119430;27;20051;-64
2022/12/13 07:01:01;;;;;;;26.23;9.50;;;-3271.60;79.30;;;;;;5102514;27;20053;-70
2022/12/13 07:03:29;;;;;;;20.67;9.30;;;-3271.60;79.40;;;;;;5116742;27;20064;-73
2022/12/13 07:05:56;;;;;;;20.65;9.90;;;-3271.50;79.30;;;;;;5118009;27;20199;-72
2022/12/13 07:08:23;;;;;;;21.17;10.73;;;-3271.50;79.50;;;;;;5116279;27;20058;-70
2022/12/13 07:10:52;;;;;;;21.88;9.45;;;-3271.60;79.40;;;;;;5119705;27;20043;-71
2022/12/13 07:13:19;;;;;;;22.13;9.73;;;-3271.60;79.20;;;;;;5119166;27;20052;-71
2022/12/13 07:15:48;;;;;;;25.17;9.68;;;-3271.60;79.30;;;;;;5119227;27;20142;-65
2022/12/13 07:18:15;;;;;;;22.05;10.43;;;-3271.60;79.30;;;;;;5117647;27;20047;-65
2022/12/13 07:20:42;;;;;;;24.50;10.40;;;-3271.60;79.30;;;;;;5115926;27;20154;-66
2022/12/13 07:23:10;;;;;;;23.48;10.65;;;-3271.60;79.30;;;;;;5118367;27;20042;-65
2022/12/13 07:25:37;;;;;;;25.48;10.77;;;-3271.60;79.30;;;;;;5115199;27;20713;-66
2022/12/13 07:28:06;;;;;;;22.88;9.80;;;-3271.50;79.30;;;;;;5113884;27;20051;-65
2022/12/13 07:30:34;;;;;;;23.48;11.10;;;-3271.50;79.30;;;;;;5118931;27;20075;-70
2022/12/13 07:33:04;;;;;;;24.33;9.45;;;-3271.60;79.30;;;;;;5118869;27;20046;-72
2022/12/13 07:35:32;;;;;;;29.30;11.93;;;-3271.50;79.20;;;;;;5117487;27;20057;-61
2022/12/13 07:37:59;;;;;;;21.85;10.75;;;-3271.50;79.30;;;;;;5118953;27;20065;-61
2022/12/13 07:40:26;;;;;;;22.38;11.27;;;-3271.50;79.10;;;;;;5117285;27;20051;-62
2022/12/13 07:42:54;;;;;;;25.70;10.98;;;-3271.50;79.30;;;;;;5116968;27;20510;-62
2022/12/13 07:45:22;;;;;;;25.25;10.23;;;-3271.50;79.30;;;;;;5116159;27;20094;-64
2022/12/13 07:47:49;;;;;;;20.00;9.90;;;-3271.50;79.40;;;;;;5117854;27;20137;-65
2022/12/13 07:50:19;;;;;;;20.48;8.85;;;-3271.60;79.30;;;;;;5116490;27;20146;-62
2022/12/13 07:52:47;;;;;;;21.55;9.93;;;-3271.60;79.20;;;;;;5115710;27;20047;-62
2022/12/13 07:55:14;;;;;;;22.90;10.50;;;-3271.60;79.30;;;;;;5116563;27;20039;-65
2022/12/13 07:57:41;;;;;;;22.35;10.93;;;-3271.60;79.20;;;;;;5118926;27;20096;-64
2022/12/13 08:00:09;;;;;;;20.80;10.50;;;-3271.60;79.20;;;;;;5117223;27;20039;-65
2022/12/13 08:02:40;;;;;;;20.73;9.77;;;-3271.60;79.30;;;;;;5117252;27;20075;-65
2022/12/13 08:05:08;;;;;;;22.15;10.57;;;-3271.60;79.40;;;;;;5102604;28;20505;-64
2022/12/13 08:07:37;;;;;;;25.30;11.18;;;-3271.60;79.40;;;;;;5096313;28;20040;-64
2022/12/13 08:10:04;;;;;;;23.80;10.45;;;-3271.60;79.50;;;;;;5095712;28;20071;-64
2022/12/13 08:12:31;;;;;;;22.52;10.48;;;-3271.60;79.60;;;;;;5095824;28;20502;-65
2022/12/13 08:14:59;;;;;;;23.73;10.10;;;-3271.70;79.40;;;;;;5097344;28;20043;-65
2022/12/13 08:17:29;;;;;;;25.30;10.73;;;-3271.80;78.90;;;;;;5098252;28;20116;-66
2022/12/13 08:19:58;;;;;;;23.13;10.30;;;-3271.80;78.90;;;;;;5092103;28;20117;-64
2022/12/13 08:22:25;;;;;;;23.10;10.02;;;-3271.80;78.60;;;;;;5095890;28;20055;-65
2022/12/13 08:24:53;;;;;;;23.02;10.80;;;-3271.80;78.60;;;;;;5097161;28;20090;-64
2022/12/13 08:27:20;;;;;;;21.25;9.50;;;-3271.70;79.10;;;;;;5090075;28;20048;-61
2022/12/13 08:29:49;;;;;;;23.95;10.95;;;-3271.80;79.00;;;;;;5095800;28;20047;-61
2022/12/13 08:32:16;;;;;;;22.67;9.85;;;-3271.80;79.00;;;;;;5101112;28;20143;-62
2022/12/13 08:34:44;;;;;;;23.63;11.23;;;-3271.80;78.90;;;;;;5098259;28;20139;-63
2022/12/13 08:37:11;;;;;;;21.10;9.57;;;-3271.90;78.90;;;;;;5109134;27;20064;-71
2022/12/13 08:39:38;;;;;;;23.73;10.63;;;-3271.90;78.70;;;;;;5121388;27;20070;-72
2022/12/13 08:42:08;;;;;;;23.05;9.65;;;-3271.90;78.90;;;;;;5121234;27;20047;-60
2022/12/13 08:44:35;;;;;;;24.45;11.05;;;-3271.90;79.00;;;;;;5116188;27;20093;-62
2022/12/13 08:47:02;;;;;;;20.75;9.30;;;-3271.90;79.00;;;;;;5121805;27;20047;-65
2022/12/13 08:49:31;;;;;;;25.85;9.85;;;-3271.90;79.10;;;;;;5118379;27;20482;-65
2022/12/13 08:51:59;;;;;;;22.25;9.70;;;-3271.90;79.10;;;;;;5119991;27;20055;-61
2022/12/13 08:54:26;;;;;;;26.58;10.40;;;-3271.90;79.30;;;;;;5119457;27;20054;-61
2022/12/13 08:56:53;;;;;;;22.08;9.85;;;-3271.90;79.30;;;;;;5122828;27;20062;-61
2022/12/13 08:59:24;;;;;;;20.20;8.95;;;-3272.00;79.30;;;;;;5117075;27;20055;-61
2022/12/13 09:01:51;;;;;;;19.25;9.55;;;-3272.00;79.30;;;;;;5109349;27;20475;-60
2022/12/13 09:04:19;;;;;;;19.98;10.02;;;-3272.00;79.30;;;;;;5119871;27;20040;-61
2022/12/13 09:06:46;;;;;;;26.55;10.85;;;-3272.00;79.40;;;;;;5121217;27;20058;-62
2022/12/13 09:09:13;;;;;;;23.92;9.85;;;-3272.00;79.60;;;;;;5119261;27;20048;-63
2022/12/13 09:11:40;;;;;;;20.63;9.98;;;-3272.10;79.60;;;;;;5121658;27;20046;-63
2022/12/13 09:14:08;;;;;;;20.17;9.30;;;-3272.10;79.70;;;;;;5121322;27;20516;-61
2022/12/13 09:16:36;;;;;;;23.40;10.10;;;-3272.20;79.80;;;;;;5120275;27;20066;-71
2022/12/13 09:19:04;;;;;;;21.30;9.88;;;-3272.20;79.80;;;;;;5121451;27;20055;-71
2022/12/13 09:21:33;;;;;;;21.77;8.90;;;-3272.30;79.60;;;;;;5120028;27;20090;-65
2022/12/13 09:24:00;;;;;;;21.02;9.68;;;-3272.30;79.80;;;;;;5116559;27;20429;-65
2022/12/13 09:26:30;;;;;;;23.17;9.50;;;-3272.30;79.80;;;;;;5121165;27;20048;-71
2022/12/13 09:28:57;;;;;;;20.25;9.35;;;-3272.30;79.90;;;;;;5120688;27;20068;-71
2022/12/13 09:31:24;;;;;;;23.02;9.90;;;-3272.40;80.00;;;;;;5121896;27;20043;-71
2022/12/13 09:33:52;;;;;;;23.52;8.65;;;-3272.40;80.10;;;;;;5119903;27;20044;-72
2022/12/13 09:36:21;;;;;;;20.45;9.27;;;-3272.50;80.10;;;;;;5117131;27;20062;-71
2022/12/13 09:38:48;;;;;;;23.77;9.20;;;-3272.60;80.00;;;;;;5089585;27;20395;-71
2022/12/13 09:41:20;;;;;;;23.02;9.95;;;-3272.50;80.20;;;;;;5111434;27;20043;-65
2022/12/13 09:43:52;;;;;;;20.40;9.30;;;-3272.60;80.20;;;;;;5114358;27;20044;-65
2022/12/13 09:46:28;;;;;;;21.83;9.55;;;-3272.60;79.90;;;;;;5095739;28;20039;-71
2022/12/13 09:48:59;;;;;;;20.13;9.48;;;-3272.60;80.40;;;;;;5118864;27;20143;-72
2022/12/13 09:51:26;;;;;;;18.67;9.63;;;-3272.60;80.10;;;;;;5120065;27;20062;-63
2022/12/13 09:53:54;;;;;;;23.20;9.18;;;-3272.60;80.70;;;;;;5118036;27;20053;-61
2022/12/13 09:56:23;;;;;;;24.27;10.90;;;-3272.70;80.70;;;;;;5120193;27;20601;-65
2022/12/13 09:58:52;;;;;;;25.15;10.07;;;-3272.70;80.90;;;;;;5109555;27;20051;-66
2022/12/13 10:01:20;;;;;;;19.25;8.63;;;-3272.70;81.00;;;;;;5120296;27;20048;-71
2022/12/13 10:03:49;;;;;;;21.60;10.00;;;-3272.80;80.70;;;;;;5118962;27;20142;-71
2022/12/13 10:06:20;;;;;;;26.23;10.05;;;-3272.90;81.10;;;;;;5121025;27;20043;-72
2022/12/13 10:08:49;;;;;;;21.35;8.52;;;-3272.90;81.30;;;;;;5118715;27;20438;-71
2022/12/13 10:11:18;;;;;;;22.48;9.75;;;-3272.90;81.20;;;;;;5119449;27;20071;-63
2022/12/13 10:13:50;;;;;;;19.85;9.63;;;-3273.00;81.10;;;;;;5117792;27;20102;-63
2022/12/13 10:16:22;;;;;;;21.42;9.70;;;-3273.10;81.30;;;;;;5121126;27;20056;-65
2022/12/13 10:18:49;;;;;;;16.35;8.65;;;-3273.10;81.40;;;;;;5116810;27;20139;-65
2022/12/13 10:21:24;;;;;;;19.80;9.40;;;-3273.10;81.40;;;;;;5119160;27;20131;-72
2022/12/13 10:23:51;;;;;;;22.27;9.43;;;-3273.20;81.30;;;;;;5117638;27;20101;-72
2022/12/13 10:26:18;;;;;;;20.38;9.80;;;-3273.20;81.40;;;;;;5117436;27;20134;-71
2022/12/13 10:28:47;;;;;;;22.98;9.13;;;-3273.20;81.20;;;;;;5117289;27;20547;-71
2022/12/13 10:31:18;;;;;;;20.83;9.38;;;-3273.30;81.60;;;;;;5118242;27;20054;-65
2022/12/13 10:33:54;;;;;;;20.77;9.65;;;-3273.30;81.70;;;;;;5120255;27;20486;-65
2022/12/13 10:36:34;;;;;;;18.83;9.55;;;-3273.40;81.60;;;;;;5108674;27;20079;-61
2022/12/13 10:39:01;;;;;;;23.60;9.55;;;-3273.40;81.60;;;;;;5118225;27;20134;-60
2022/12/13 10:41:35;;;;;;;21.48;9.68;;;-3273.50;81.60;;;;;;5126514;27;20151;-64
2022/12/13 10:44:16;;;;;;;19.00;8.20;;;-3273.50;81.50;;;;;;5112204;27;20148;-63
2022/12/13 10:46:48;;;;;;;20.80;9.18;;;-3273.50;81.70;;;;;;5118602;27;20062;-62
2022/12/13 10:49:17;;;;;;;21.35;9.40;;;-3273.60;81.50;;;;;;5118978;27;20047;-62
2022/12/13 10:51:46;;;;;;;16.80;8.68;;;-3273.60;81.60;;;;;;5117423;27;20058;-66
2022/12/13 10:54:26;;;;;;;17.98;8.93;;;-3273.60;81.70;;;;;;5117000;27;20108;-65
2022/12/13 10:56:58;;;;;;;19.63;9.32;;;-3273.60;81.80;;;;;;5116053;27;20044;-62
2022/12/13 10:59:31;;;;;;;17.60;8.52;;;-3273.70;81.90;;;;;;5118863;27;20130;-62
2022/12/13 11:01:58;;;;;;;19.90;8.82;;;-3273.70;81.80;;;;;;5116900;27;20056;-61
2022/12/13 11:04:29;;;;;;;19.45;8.93;;;-3273.80;81.70;;;;;;5111604;27;20046;-63
2022/12/13 11:06:58;;;;;;;;;;;-3273.80;81.60;;;;;;5126320;27;20047;-60
2022/12/13 11:09:28;;;;;;;19.98;8.38;;;-3273.90;81.70;;;;;;5117595;27;20377;-63
2022/12/13 11:11:57;;;;;;;18.33;8.98;;;-3273.90;81.70;;;;;;5118216;27;20485;-71
2022/12/13 11:14:27;;;;;;;21.95;9.10;;;-3273.90;81.80;;;;;;5119332;27;20043;-72
2022/12/13 11:16:57;;;;;;;18.30;9.20;;;-3274.00;81.70;;;;;;5119294;27;20046;-62
2022/12/13 11:19:28;;;;;;;17.50;9.23;;;-3274.00;81.80;;;;;;5118849;27;20055;-61
2022/12/13 11:21:55;;;;;;;;;;;-3274.10;81.70;;;;;;5118433;27;20047;-64
2022/12/13 11:24:26;;;;;;;17.35;7.47;;;-3274.10;81.60;;;;;;5118592;27;19923;-63
2022/12/13 11:26:57;;;;;;;18.52;8.30;;;-3274.10;81.60;;;;;;5117837;27;20046;-64
2022/12/13 11:29:46;;;;;;;16.83;7.60;;;-3274.10;81.70;;;;;;5118009;27;20070;-65
2022/12/13 11:32:22;;;;;;;16.95;7.90;;;-3274.20;82.00;;;;;;5105754;27;20047;-65
2022/12/13 11:35:00;;;;;;;18.85;8.93;;;-3274.20;82.00;;;;;;5113699;27;20046;-61
2022/12/13 11:37:32;;;;;;;15.30;7.22;;;-3274.20;81.90;;;;;;5118320;27;20131;-71
2022/12/13 11:40:06;;;;;;;18.60;7.82;;;-3274.30;82.00;;;;;;5097551;27;20130;-69
2022/12/13 11:42:39;;;;;;;20.60;8.68;;;-3274.30;82.10;;;;;;5098229;28;20066;-71
2022/12/13 11:45:14;;;;;;;18.15;8.02;;;-3274.30;82.10;;;;;;5097730;28;20078;-72
2022/12/13 11:47:46;;;;;;;16.55;7.38;;;-3274.40;82.20;;;;;;5096973;28;20048;-70
2022/12/13 11:50:16;;;;;;;15.63;7.30;;;-3274.40;82.20;;;;;;5098423;28;20495;-63
2022/12/13 11:52:50;;;;;;;16.02;6.80;;;-3274.40;82.10;;;;;;5093507;28;20062;-62
2022/12/13 11:55:22;;;;;;;16.20;6.97;;;-3274.40;82.20;;;;;;5097949;28;20067;-65
2022/12/13 11:57:57;;;;;;;13.57;7.00;;;-3274.50;82.10;;;;;;5096487;28;20050;-66
2022/12/13 12:00:31;;;;;;;15.98;7.13;;;-3274.50;82.20;;;;;;5096922;28;20067;-61
2022/12/13 12:03:07;;;;;;;16.92;7.50;;;-3274.50;82.20;;;;;;5083658;28;20038;-61
2022/12/13 12:05:37;;;;;;;19.98;7.78;;;-3274.60;82.10;;;;;;5098867;28;20044;-66
2022/12/13 12:08:12;;;;;;;19.17;7.40;;;-3274.60;82.10;;;;;;5091020;28;20413;-66
2022/12/13 12:10:43;;;;;;;16.08;7.82;;;-3274.60;82.00;;;;;;5091034;28;20136;-71
2022/12/13 12:13:16;;;;;;;16.77;7.40;;;-3274.70;82.30;;;;;;5092321;28;20039;-72
2022/12/13 12:15:50;;;;;;;14.52;6.78;;;-3274.70;82.40;;;;;;5089161;28;20457;-63
2022/12/13 12:18:17;;;;;;;14.02;7.05;;;-3274.70;82.40;;;;;;5093112;28;20044;-63
2022/12/13 12:21:08;;;;;;;14.57;6.63;;;-3274.70;82.30;;;;;;5091420;28;20048;-62
2022/12/13 12:23:47;;;;;;;15.52;6.75;;;-3274.70;82.40;;;;;;5092244;28;20048;-62